createdAt,value
2023-04-13T00:00:21.822Z,6.80
2023-04-13T00:02:54.451Z,6.33
2023-04-13T00:05:21.788Z,7.23
2023-04-13T00:07:48.401Z,7.10
2023-04-13T00:10:16.072Z,7.43
2023-04-13T00:12:48.740Z,7.10
2023-04-13T00:15:21.738Z,6.20
2023-04-13T00:17:48.660Z,7.10
2023-04-13T00:20:15.300Z,6.70
2023-04-13T00:22:43.215Z,8.40
2023-04-13T00:25:14.474Z,7.17
2023-04-13T00:27:42.397Z,7.63
2023-04-13T00:30:16.006Z,8.97
2023-04-13T00:32:43.754Z,8.40
2023-04-13T00:35:11.689Z,8.40
2023-04-13T00:37:38.821Z,8.80
2023-04-13T00:40:06.365Z,8.03
2023-04-13T00:42:32.845Z,9.20
2023-04-13T00:44:59.396Z,9.50
2023-04-13T00:47:30.495Z,9.33
2023-04-13T00:49:58.357Z,8.57
2023-04-13T00:52:24.938Z,9.90
2023-04-13T00:54:51.703Z,10.00
2023-04-13T00:57:19.378Z,9.47
2023-04-13T00:59:49.375Z,9.77
2023-04-13T01:02:16.673Z,8.10
2023-04-13T01:04:45.941Z,8.43
2023-04-13T01:07:22.013Z,7.27
2023-04-13T01:09:52.585Z,7.00
2023-04-13T01:12:26.561Z,5.80
2023-04-13T01:14:57.292Z,5.93
2023-04-13T01:17:27.595Z,5.93
2023-04-13T01:20:01.626Z,4.97
2023-04-13T01:22:29.641Z,4.77
2023-04-13T01:24:59.209Z,3.80
2023-04-13T01:27:42.398Z,3.50
2023-04-13T01:30:11.034Z,3.53
2023-04-13T01:32:38.099Z,4.10
2023-04-13T01:35:06.960Z,3.80
2023-04-13T01:37:33.891Z,3.33
2023-04-13T01:40:00.519Z,4.10
2023-04-13T01:42:27.703Z,3.97
2023-04-13T01:44:54.273Z,4.40
2023-04-13T01:47:24.001Z,4.10
2023-04-13T01:50:04.098Z,4.50
2023-04-13T01:52:33.270Z,5.20
2023-04-13T01:55:00.782Z,4.50
2023-04-13T01:57:30.498Z,4.83
2023-04-13T01:59:57.433Z,5.07
2023-04-13T02:02:24.407Z,5.37
2023-04-13T02:04:51.700Z,5.17
2023-04-13T02:07:18.946Z,5.00
2023-04-13T02:09:45.889Z,4.93
2023-04-13T02:12:12.985Z,5.40
2023-04-13T02:14:39.492Z,5.30
2023-04-13T02:17:06.090Z,4.57
2023-04-13T02:19:32.708Z,4.87
2023-04-13T02:21:59.768Z,5.00
2023-04-13T02:24:26.329Z,4.83
2023-04-13T02:26:52.914Z,4.60
2023-04-13T02:29:19.485Z,4.30
2023-04-13T02:31:46.432Z,4.60
2023-04-13T02:34:13.718Z,5.40
2023-04-13T02:36:40.904Z,4.17
2023-04-13T02:39:08.044Z,4.60
2023-04-13T02:41:34.787Z,4.83
2023-04-13T02:44:01.576Z,4.37
2023-04-13T02:46:30.049Z,4.53
2023-04-13T02:48:59.208Z,4.67
2023-04-13T02:51:27.231Z,3.87
2023-04-13T02:53:57.831Z,4.03
2023-04-13T02:56:28.289Z,3.47
2023-04-13T02:58:55.254Z,3.80
2023-04-13T03:01:25.172Z,4.10
2023-04-13T03:03:51.788Z,3.87
2023-04-13T03:06:18.321Z,3.87
2023-04-13T03:08:44.846Z,3.63
2023-04-13T03:11:11.522Z,3.70
2023-04-13T03:13:38.281Z,3.70
2023-04-13T03:16:05.169Z,4.13
2023-04-13T03:18:32.245Z,4.80
2023-04-13T03:20:58.840Z,4.27
2023-04-13T03:23:25.481Z,3.97
2023-04-13T03:25:51.959Z,4.43
2023-04-13T03:28:19.682Z,4.33
2023-04-13T03:30:46.325Z,3.87
2023-04-13T03:33:12.912Z,4.03
2023-04-13T03:35:39.576Z,4.77
2023-04-13T03:38:06.257Z,4.30
2023-04-13T03:40:32.798Z,4.57
2023-04-13T03:42:59.520Z,4.57
2023-04-13T03:45:26.204Z,4.60
2023-04-13T03:47:52.830Z,4.67
2023-04-13T03:50:19.441Z,4.53
2023-04-13T03:52:46.198Z,4.43
2023-04-13T03:55:13.912Z,4.40
2023-04-13T03:57:40.658Z,4.30
2023-04-13T04:00:11.234Z,3.80
2023-04-13T04:02:38.224Z,4.43
2023-04-13T04:05:05.029Z,3.90
2023-04-13T04:07:31.740Z,4.27
2023-04-13T04:09:58.397Z,4.37
2023-04-13T04:12:24.902Z,4.00
2023-04-13T04:15:11.505Z,4.27
2023-04-13T04:17:58.086Z,3.43
2023-04-13T04:20:44.636Z,3.73
2023-04-13T04:23:31.134Z,3.50
2023-04-13T04:26:02.951Z,3.33
2023-04-13T04:28:39.128Z,3.20
2023-04-13T04:31:12.751Z,3.20
2023-04-13T04:33:39.643Z,2.83
2023-04-13T04:36:07.185Z,3.50
2023-04-13T04:38:33.727Z,2.70
2023-04-13T04:41:02.111Z,2.80
2023-04-13T04:43:29.792Z,2.50
2023-04-13T04:45:59.466Z,2.80
2023-04-13T04:48:27.341Z,2.60
2023-04-13T04:50:54.354Z,2.87
2023-04-13T04:53:21.526Z,2.40
2023-04-13T04:55:48.209Z,2.53
2023-04-13T04:58:14.708Z,3.00
2023-04-13T05:00:41.380Z,2.70
2023-04-13T05:03:08.392Z,2.70
2023-04-13T05:05:35.406Z,2.23
2023-04-13T05:08:02.145Z,2.23
2023-04-13T05:10:29.738Z,1.90
2023-04-13T05:12:56.813Z,1.80
2023-04-13T05:15:23.437Z,1.87
2023-04-13T05:17:51.059Z,2.00
2023-04-13T05:20:19.277Z,1.73
2023-04-13T05:22:45.815Z,1.80
2023-04-13T05:25:13.363Z,2.07
2023-04-13T05:27:39.947Z,2.00
2023-04-13T05:30:06.844Z,1.50
2023-04-13T05:32:34.435Z,1.73
2023-04-13T05:35:01.217Z,1.50
2023-04-13T05:37:27.753Z,1.30
2023-04-13T05:39:54.390Z,1.40
2023-04-13T05:42:21.045Z,1.40
2023-04-13T05:44:47.810Z,1.57
2023-04-13T05:47:14.454Z,1.50
2023-04-13T05:49:41.310Z,1.20
2023-04-13T05:52:08.154Z,1.20
2023-04-13T05:54:34.732Z,1.30
2023-04-13T05:57:01.277Z,1.40
2023-04-13T05:59:27.881Z,1.57
2023-04-13T06:01:56.248Z,1.37
2023-04-13T06:04:23.064Z,0.90
2023-04-13T06:06:50.264Z,1.30
2023-04-13T06:09:17.837Z,1.10
2023-04-13T06:11:44.438Z,1.20
2023-04-13T06:14:11.121Z,1.90
2023-04-13T06:16:37.849Z,9.20
2023-04-13T06:19:05.350Z,1.40
2023-04-13T06:21:32.176Z,0.97
2023-04-13T06:23:58.887Z,1.00
2023-04-13T06:26:25.753Z,1.20
2023-04-13T06:28:52.561Z,1.33
2023-04-13T06:31:21.066Z,2.37
2023-04-13T06:33:48.496Z,0.90
2023-04-13T06:36:15.210Z,1.20
2023-04-13T06:38:41.946Z,1.23
2023-04-13T06:41:10.244Z,1.30
2023-04-13T06:43:37.360Z,0.80
2023-04-13T06:46:04.789Z,1.10
2023-04-13T06:48:31.551Z,1.47
2023-04-13T06:50:59.893Z,1.03
2023-04-13T06:53:26.611Z,1.10
2023-04-13T06:55:53.264Z,1.43
2023-04-13T06:58:20.863Z,1.07
2023-04-13T07:00:47.589Z,1.30
2023-04-13T07:03:16.059Z,2.23
2023-04-13T07:05:44.072Z,1.57
2023-04-13T07:08:10.897Z,2.53
2023-04-13T07:10:40.252Z,1.53
2023-04-13T07:13:07.604Z,1.60
2023-04-13T07:15:36.537Z,8.20
2023-04-13T07:18:03.214Z,1.37
2023-04-13T07:20:29.835Z,1.60
2023-04-13T07:22:56.582Z,1.50
2023-04-13T07:25:23.276Z,1.27
2023-04-13T07:27:49.911Z,1.10
2023-04-13T07:30:16.630Z,1.30
2023-04-13T07:32:43.295Z,1.60
2023-04-13T07:35:10.048Z,4.67
2023-04-13T07:37:36.763Z,2.70
2023-04-13T07:40:04.689Z,1.87
2023-04-13T07:42:31.475Z,1.20
2023-04-13T07:44:58.248Z,1.17
2023-04-13T07:47:25.088Z,9.73
2023-04-13T07:49:51.721Z,1.93
2023-04-13T07:52:19.111Z,1.80
2023-04-13T07:54:45.811Z,1.80
2023-04-13T07:57:12.485Z,2.70
2023-04-13T07:59:39.042Z,2.13
2023-04-13T08:02:05.947Z,2.03
2023-04-13T08:04:33.370Z,2.13
2023-04-13T08:07:07.341Z,2.37
2023-04-13T08:09:39.270Z,4.50
2023-04-13T08:12:08.670Z,2.40
2023-04-13T08:14:35.356Z,1.67
2023-04-13T08:17:04.219Z,1.63
2023-04-13T08:19:31.638Z,1.60
2023-04-13T08:21:58.686Z,1.73
2023-04-13T08:24:25.690Z,1.90
2023-04-13T08:26:55.445Z,2.13
2023-04-13T08:29:22.608Z,2.20
2023-04-13T08:31:49.947Z,2.37
2023-04-13T08:37:08.471Z,2.53
2023-04-13T08:39:35.435Z,2.30
2023-04-13T08:42:05.282Z,2.20
2023-04-13T08:44:37.068Z,2.13
2023-04-13T08:47:04.428Z,1.97
2023-04-13T08:49:32.761Z,2.20
2023-04-13T08:52:00.174Z,1.70
2023-04-13T08:54:28.566Z,1.80
2023-04-13T08:56:55.760Z,2.20
2023-04-13T08:59:23.214Z,2.07
2023-04-13T09:01:53.233Z,2.00
2023-04-13T09:04:21.429Z,1.80
2023-04-13T09:36:11.567Z,2.70
2023-04-13T09:38:38.303Z,2.47
2023-04-13T09:41:04.952Z,1.70
2023-04-13T09:43:36.071Z,1.90
2023-04-13T09:46:02.802Z,2.00
2023-04-13T09:48:29.471Z,2.03
2023-04-13T09:50:59.782Z,1.90
2023-04-13T09:53:27.454Z,1.80
2023-04-13T09:55:58.403Z,2.20
2023-04-13T09:58:25.483Z,1.90
2023-04-13T10:00:52.751Z,1.97
2023-04-13T10:03:21.389Z,10.00
2023-04-13T10:08:21.768Z,1.60
2023-04-13T10:10:54.091Z,1.70
2023-04-13T10:13:23.212Z,1.47
2023-04-13T10:16:03.590Z,1.40
2023-04-13T10:18:30.889Z,1.50
2023-04-13T10:20:58.921Z,1.40
2023-04-13T10:23:26.108Z,1.60
2023-04-13T10:25:53.374Z,1.20
2023-04-13T10:28:20.649Z,1.20
2023-04-13T10:30:53.833Z,1.20
2023-04-13T10:33:20.756Z,1.20
2023-04-13T10:35:57.956Z,1.00
2023-04-13T10:38:24.952Z,1.20
2023-04-13T10:40:52.121Z,1.20
2023-04-13T10:43:29.694Z,1.20
2023-04-13T10:46:06.657Z,1.20
2023-04-13T10:48:33.542Z,1.20
2023-04-13T10:51:00.886Z,1.40
2023-04-13T10:53:30.570Z,1.50
2023-04-13T10:55:57.994Z,1.60
2023-04-13T10:58:25.440Z,1.30
2023-04-13T11:00:52.412Z,1.30
2023-04-13T11:03:19.473Z,1.40
2023-04-13T11:05:47.604Z,1.57
2023-04-13T11:08:19.323Z,1.60
2023-04-13T11:10:53.163Z,1.60
2023-04-13T11:13:20.150Z,1.80
2023-04-13T11:15:48.230Z,1.80
2023-04-13T11:18:23.930Z,1.80
2023-04-13T11:20:51.419Z,2.00
2023-04-13T11:23:23.920Z,1.70
2023-04-13T11:25:53.225Z,1.73
2023-04-13T11:28:20.340Z,1.90
2023-04-13T11:30:54.540Z,2.03
2023-04-13T11:33:28.607Z,1.97
2023-04-13T11:35:55.713Z,2.40
2023-04-13T11:38:22.529Z,2.17
2023-04-13T11:40:49.863Z,2.20
2023-04-13T11:43:19.467Z,2.10
2023-04-13T11:45:47.441Z,2.00
2023-04-13T11:48:14.321Z,1.90
2023-04-13T11:50:42.219Z,2.13
2023-04-13T11:53:09.826Z,2.03
2023-04-13T11:55:51.937Z,2.27
2023-04-13T11:58:21.000Z,2.57
2023-04-13T12:00:48.396Z,2.00
2023-04-13T12:05:47.397Z,2.30
2023-04-13T12:08:23.157Z,2.40
2023-04-13T12:11:25.116Z,2.30
2023-04-13T12:13:52.349Z,2.67
2023-04-13T12:16:44.717Z,2.30
2023-04-13T12:19:14.097Z,2.30
2023-04-13T12:21:52.298Z,2.63
2023-04-13T12:24:19.493Z,2.60
2023-04-13T12:29:15.994Z,2.40
2023-04-13T12:31:44.513Z,2.67
2023-04-13T12:34:11.263Z,2.57
2023-04-13T12:36:37.996Z,2.10
2023-04-13T12:39:04.904Z,2.13
2023-04-13T12:41:32.406Z,2.30
2023-04-13T12:43:59.118Z,2.63
2023-04-13T12:46:26.766Z,2.63
2023-04-13T12:48:54.134Z,2.43
2023-04-13T12:51:21.252Z,2.63
2023-04-13T12:53:47.976Z,2.20
2023-04-13T12:56:14.481Z,2.13
2023-04-13T12:58:41.022Z,2.20
2023-04-13T13:01:08.410Z,2.23
2023-04-13T13:03:37.025Z,2.13
2023-04-13T13:06:04.748Z,1.80
2023-04-13T13:08:34.558Z,2.10
2023-04-13T13:11:03.431Z,2.10
2023-04-13T13:13:30.179Z,2.27
2023-04-13T13:15:56.727Z,2.10
2023-04-13T13:18:23.241Z,2.60
2023-04-13T13:20:53.504Z,2.60
2023-04-13T13:23:20.159Z,2.70
2023-04-13T13:25:59.269Z,2.83
2023-04-13T13:28:33.312Z,2.57
2023-04-13T13:30:59.902Z,2.97
2023-04-13T13:33:26.667Z,3.60
2023-04-13T13:35:53.492Z,3.60
2023-04-13T13:38:20.089Z,3.70
2023-04-13T13:40:47.197Z,4.00
2023-04-13T13:43:14.007Z,3.80
2023-04-13T13:45:41.206Z,3.10
2023-04-13T13:48:07.923Z,2.57
2023-04-13T13:50:34.539Z,2.73
2023-04-13T13:53:04.219Z,2.33
2023-04-13T13:55:31.656Z,2.27
2023-04-13T13:57:58.478Z,2.90
2023-04-13T14:00:25.954Z,3.13
2023-04-13T14:02:52.750Z,2.73
2023-04-13T14:05:20.766Z,3.00
2023-04-13T14:07:47.316Z,2.67
2023-04-13T14:10:14.031Z,3.30
2023-04-13T14:12:41.920Z,3.17
2023-04-13T14:15:09.328Z,3.50
2023-04-13T14:17:36.951Z,3.30
2023-04-13T14:20:10.502Z,4.00
2023-04-13T14:22:37.944Z,3.90
2023-04-13T14:25:05.742Z,3.60
2023-04-13T14:27:36.217Z,3.80
2023-04-13T14:30:03.297Z,3.70
2023-04-13T14:32:30.072Z,4.07
2023-04-13T14:34:57.338Z,3.97
2023-04-13T14:37:24.245Z,4.00
2023-04-13T14:39:51.519Z,3.77
2023-04-13T14:42:18.075Z,3.87
2023-04-13T14:44:44.638Z,3.90
2023-04-13T14:47:12.349Z,3.77
2023-04-13T14:49:38.939Z,3.73
2023-04-13T14:52:07.367Z,3.80
2023-04-13T14:54:34.020Z,2.83
2023-04-13T14:57:01.301Z,2.37
2023-04-13T14:59:27.916Z,2.60
2023-04-13T15:01:55.434Z,2.50
2023-04-13T15:04:22.300Z,2.77
2023-04-13T15:06:49.794Z,2.60
2023-04-13T15:09:16.416Z,1.53
2023-04-13T15:11:43.112Z,1.40
2023-04-13T15:14:10.114Z,1.33
2023-04-13T15:16:37.176Z,1.97
2023-04-13T15:19:04.225Z,1.73
2023-04-13T15:21:31.849Z,1.60
2023-04-13T15:23:58.553Z,1.77
2023-04-13T15:26:25.220Z,1.63
2023-04-13T15:28:51.814Z,1.80
2023-04-13T15:31:18.570Z,1.73
2023-04-13T15:33:45.442Z,1.40
2023-04-13T15:36:15.942Z,1.93
2023-04-13T15:38:42.890Z,1.43
2023-04-13T15:41:10.656Z,1.63
2023-04-13T15:43:37.466Z,1.67
2023-04-13T15:46:04.144Z,1.90
2023-04-13T15:48:30.796Z,1.90
2023-04-13T15:50:58.155Z,1.40
2023-04-13T15:53:25.836Z,1.97
2023-04-13T15:55:53.642Z,1.70
2023-04-13T15:58:20.533Z,1.60
2023-04-13T16:00:47.232Z,1.53
2023-04-13T16:03:14.041Z,1.97
2023-04-13T16:05:40.907Z,2.03
2023-04-13T16:08:08.110Z,2.10
2023-04-13T16:10:34.680Z,2.10
2023-04-13T16:13:02.837Z,2.77
2023-04-13T16:15:29.597Z,2.20
2023-04-13T16:17:57.101Z,2.20
2023-04-13T16:20:28.427Z,2.17
2023-04-13T16:22:59.318Z,2.40
2023-04-13T16:25:25.907Z,2.10
2023-04-13T16:27:54.177Z,2.47
2023-04-13T16:30:22.325Z,2.40
2023-04-13T16:32:49.391Z,2.63
2023-04-13T16:35:16.179Z,2.43
2023-04-13T16:37:42.978Z,2.53
2023-04-13T16:40:13.191Z,2.50
2023-04-13T16:42:40.603Z,3.20
2023-04-13T16:45:11.476Z,2.50
2023-04-13T16:47:39.660Z,2.80
2023-04-13T16:50:07.341Z,2.90
2023-04-13T16:52:38.838Z,2.60
2023-04-13T16:55:05.912Z,2.50
2023-04-13T16:57:33.049Z,3.03
2023-04-13T17:00:10.916Z,2.83
2023-04-13T17:02:38.501Z,3.20
2023-04-13T17:05:09.027Z,2.87
2023-04-13T17:07:36.899Z,2.80
2023-04-13T17:10:04.439Z,3.07
2023-04-13T17:12:31.121Z,2.90
2023-04-13T17:14:58.422Z,3.17
2023-04-13T17:17:25.675Z,3.10
2023-04-13T17:19:55.583Z,3.40
2023-04-13T17:22:22.816Z,3.70
2023-04-13T17:24:49.641Z,3.70
2023-04-13T17:27:16.672Z,3.77
2023-04-13T17:29:43.417Z,3.50
2023-04-13T17:32:10.200Z,3.57
2023-04-13T17:34:36.941Z,3.40
2023-04-13T17:37:04.125Z,3.53
2023-04-13T17:39:30.988Z,3.17
2023-04-13T17:41:58.705Z,3.77
2023-04-13T17:44:28.961Z,3.70
2023-04-13T17:47:05.493Z,3.73
2023-04-13T17:49:33.104Z,3.40
2023-04-13T17:52:00.239Z,3.73
2023-04-13T17:54:27.460Z,3.80
2023-04-13T17:56:54.369Z,3.47
2023-04-13T17:59:21.265Z,3.33
2023-04-13T18:01:50.482Z,3.10
2023-04-13T18:04:17.272Z,3.10
2023-04-13T18:06:43.869Z,3.23
2023-04-13T18:09:14.653Z,2.90
2023-04-13T18:11:41.208Z,3.00
2023-04-13T18:14:09.183Z,3.37
2023-04-13T18:16:36.137Z,3.90
2023-04-13T18:19:02.964Z,3.83
2023-04-13T18:21:29.671Z,4.03
2023-04-13T18:23:56.330Z,4.90
2023-04-13T18:26:23.195Z,4.53
2023-04-13T18:28:49.922Z,5.23
2023-04-13T18:31:16.682Z,4.93
2023-04-13T18:33:44.090Z,5.00
2023-04-13T18:36:13.880Z,4.80
2023-04-13T18:38:40.569Z,4.97
2023-04-13T18:41:07.140Z,5.07
2023-04-13T18:43:33.895Z,4.40
2023-04-13T18:46:00.948Z,4.70
2023-04-13T18:48:27.657Z,4.90
2023-04-13T18:50:54.221Z,4.73
2023-04-13T18:53:21.190Z,4.97
2023-04-13T18:55:52.370Z,4.73
2023-04-13T18:58:22.588Z,5.00
2023-04-13T19:00:49.458Z,4.77
2023-04-13T19:03:16.141Z,5.20
2023-04-13T19:05:42.815Z,5.50
2023-04-13T19:08:12.977Z,5.40
2023-04-13T19:10:40.054Z,6.20
2023-04-13T19:13:06.669Z,5.87
2023-04-13T19:15:33.421Z,5.87
2023-04-13T19:18:01.391Z,6.17
2023-04-13T19:20:28.154Z,5.57
2023-04-13T19:22:54.943Z,5.57
2023-04-13T19:25:21.687Z,6.23
2023-04-13T19:27:48.556Z,6.40
2023-04-13T19:30:15.680Z,6.20
2023-04-13T19:32:43.551Z,5.97
2023-04-13T19:35:10.668Z,6.30
2023-04-13T19:37:38.130Z,6.07
2023-04-13T19:40:09.880Z,6.40
2023-04-13T19:42:36.884Z,5.80
2023-04-13T19:45:03.724Z,5.50
2023-04-13T19:47:30.587Z,6.30
2023-04-13T19:49:57.363Z,6.20
2023-04-13T19:52:25.280Z,5.93
2023-04-13T19:54:52.187Z,6.30
2023-04-13T19:57:19.932Z,6.57
2023-04-13T19:59:47.116Z,6.90
2023-04-13T20:02:14.118Z,6.93
2023-04-13T20:04:41.226Z,6.83
2023-04-13T20:07:07.976Z,6.13
2023-04-13T20:09:34.658Z,6.57
2023-04-13T20:12:01.813Z,6.50
2023-04-13T20:14:28.400Z,6.53
2023-04-13T20:16:55.075Z,6.97
2023-04-13T20:19:23.744Z,6.80
2023-04-13T20:21:51.529Z,7.33
2023-04-13T20:24:18.827Z,6.47
2023-04-13T20:26:45.790Z,6.30
2023-04-13T20:29:12.437Z,6.20
2023-04-13T20:31:39.068Z,7.20
2023-04-13T20:34:09.655Z,6.87
2023-04-13T20:36:36.450Z,6.87
2023-04-13T20:39:03.648Z,7.57
2023-04-13T20:41:32.210Z,7.30
2023-04-13T20:43:59.639Z,6.33
2023-04-13T20:46:34.203Z,6.27
2023-04-13T20:49:02.753Z,6.90
2023-04-13T20:51:31.004Z,6.87
2023-04-13T20:53:58.844Z,8.00
2023-04-13T20:56:25.596Z,7.50
2023-04-13T20:58:57.381Z,7.77
2023-04-13T21:01:28.033Z,7.13
2023-04-13T21:03:54.931Z,7.80
2023-04-13T21:06:22.975Z,7.73
2023-04-13T21:08:49.713Z,8.03
2023-04-13T21:11:16.398Z,8.87
2023-04-13T21:13:43.055Z,8.70
2023-04-13T21:16:11.214Z,8.27
2023-04-13T21:18:37.832Z,9.27
2023-04-13T21:21:05.924Z,8.00
2023-04-13T21:23:32.500Z,8.60
2023-04-13T21:25:59.053Z,7.83
2023-04-13T21:28:25.647Z,7.87
2023-04-13T21:30:52.152Z,7.77
2023-04-13T21:33:18.683Z,7.80
2023-04-13T21:35:45.400Z,7.47
2023-04-13T21:38:12.166Z,7.80
2023-04-13T21:40:38.909Z,8.63
2023-04-13T21:43:05.413Z,8.37
2023-04-13T21:45:32.041Z,8.10
2023-04-13T21:47:58.781Z,7.80
2023-04-13T21:50:25.345Z,9.07
2023-04-13T21:52:52.002Z,8.17
2023-04-13T21:55:18.497Z,8.13
2023-04-13T21:57:45.893Z,8.07
2023-04-13T22:00:13.061Z,8.77
2023-04-13T22:02:39.764Z,9.83
2023-04-13T22:05:07.029Z,8.50
2023-04-13T22:07:42.179Z,8.10
2023-04-13T22:10:10.594Z,8.97
2023-04-13T22:12:37.157Z,8.93
2023-04-13T22:15:03.893Z,8.77
2023-04-13T22:17:30.506Z,9.37
2023-04-13T22:19:57.146Z,9.37
2023-04-13T22:22:23.692Z,8.77
2023-04-13T22:24:50.986Z,9.50
2023-04-13T22:27:17.583Z,8.90
2023-04-13T22:29:44.102Z,9.57
2023-04-13T22:32:10.943Z,10.90
2023-04-13T22:34:37.419Z,9.03
2023-04-13T22:37:05.077Z,11.10
2023-04-13T22:39:31.722Z,10.17
2023-04-13T22:42:01.456Z,9.60
2023-04-13T22:44:34.500Z,8.87
2023-04-13T22:47:01.915Z,9.50
2023-04-13T22:49:29.763Z,8.70
2023-04-13T22:51:56.895Z,8.47
2023-04-13T22:54:23.864Z,8.90
2023-04-13T22:56:50.485Z,9.77
2023-04-13T22:59:17.061Z,9.57
2023-04-13T23:01:43.809Z,9.73
2023-04-13T23:04:12.096Z,10.00
2023-04-13T23:06:40.057Z,10.83
2023-04-13T23:09:06.869Z,9.90
2023-04-13T23:11:33.377Z,9.43
2023-04-13T23:14:00.694Z,9.83
2023-04-13T23:16:28.689Z,9.57
2023-04-13T23:18:55.991Z,10.70
2023-04-13T23:21:22.587Z,11.03
2023-04-13T23:23:49.143Z,10.30
2023-04-13T23:26:15.853Z,11.17
2023-04-13T23:28:42.420Z,9.77
2023-04-13T23:31:09.156Z,10.47
2023-04-13T23:33:35.768Z,11.23
2023-04-13T23:36:02.474Z,10.77
2023-04-13T23:38:29.651Z,11.57
2023-04-13T23:40:56.461Z,12.67
2023-04-13T23:43:23.077Z,11.03
2023-04-13T23:45:51.445Z,11.07
2023-04-13T23:48:21.802Z,11.40
2023-04-13T23:50:48.975Z,11.97
2023-04-13T23:53:16.589Z,11.27
2023-04-13T23:55:43.209Z,11.23
2023-04-13T23:58:09.782Z,11.37
